createdAt,value
2018-09-06T00:02:27.852Z,18.4
2018-09-06T00:07:28.037Z,18.2
2018-09-06T00:12:27.121Z,18.1
2018-09-06T00:17:27.332Z,18.1
2018-09-06T00:22:27.596Z,18.1
2018-09-06T00:27:27.713Z,18.1
2018-09-06T00:32:27.517Z,18.1
2018-09-06T00:37:27.270Z,18.1
2018-09-06T00:42:27.553Z,18.0
2018-09-06T00:47:27.502Z,17.9
2018-09-06T00:52:27.099Z,17.9
2018-09-06T00:57:27.346Z,17.9
2018-09-06T01:02:27.874Z,18.0
2018-09-06T01:07:27.422Z,18.0
2018-09-06T01:12:27.284Z,17.9
2018-09-06T01:17:27.046Z,17.9
2018-09-06T01:22:28.221Z,17.8
2018-09-06T01:27:28.338Z,17.8
2018-09-06T01:32:27.880Z,17.7
2018-09-06T01:37:27.660Z,17.7
2018-09-06T01:42:28.389Z,17.7
2018-09-06T01:47:26.942Z,17.5
2018-09-06T01:52:27.436Z,17.4
2018-09-06T01:57:27.781Z,17.3
2018-09-06T02:02:26.661Z,17.3
2018-09-06T02:07:27.861Z,17.3
2018-09-06T02:12:27.248Z,17.2
2018-09-06T02:17:28.944Z,17.2
2018-09-06T02:22:27.729Z,16.9
2018-09-06T02:27:28.235Z,16.9
2018-09-06T02:32:27.650Z,16.8
2018-09-06T02:37:26.897Z,16.7
2018-09-06T02:42:27.847Z,16.8
2018-09-06T02:47:28.690Z,16.8
2018-09-06T02:52:26.561Z,16.8
2018-09-06T02:57:27.791Z,16.9
2018-09-06T03:02:27.993Z,16.8
2018-09-06T03:07:26.886Z,16.6
2018-09-06T03:12:27.049Z,16.5
2018-09-06T03:17:27.535Z,16.5
2018-09-06T03:22:28.134Z,16.6
2018-09-06T03:27:28.444Z,16.6
2018-09-06T03:32:27.297Z,16.6
2018-09-06T03:37:26.932Z,16.5
2018-09-06T03:42:27.428Z,16.4
2018-09-06T03:47:28.325Z,16.3
2018-09-06T03:52:27.330Z,16.1
2018-09-06T03:57:27.765Z,16.1
2018-09-06T04:02:28.013Z,16.0
2018-09-06T04:07:28.114Z,16.1
2018-09-06T04:12:28.380Z,16.2
2018-09-06T04:17:27.915Z,16.1
2018-09-06T04:22:27.983Z,16.2
2018-09-06T04:27:27.573Z,16.2
2018-09-06T04:32:27.967Z,16.2
2018-09-06T04:37:27.335Z,16.2
2018-09-06T04:42:27.694Z,16.2
2018-09-06T04:47:27.371Z,16.3
2018-09-06T04:52:28.951Z,16.4
2018-09-06T04:57:27.443Z,16.4
2018-09-06T05:02:28.290Z,16.3
2018-09-06T05:07:28.033Z,16.4
2018-09-06T05:12:27.565Z,16.5
2018-09-06T05:17:28.554Z,16.5
2018-09-06T05:22:28.317Z,16.6
2018-09-06T05:27:28.310Z,16.8
2018-09-06T05:32:28.482Z,16.9
2018-09-06T05:37:28.856Z,17.0
2018-09-06T05:42:27.407Z,16.9
2018-09-06T05:47:27.918Z,17.0
2018-09-06T05:52:29.181Z,17.1
2018-09-06T05:57:28.122Z,17.3
2018-09-06T06:02:28.105Z,17.4
2018-09-06T06:07:28.016Z,17.8
2018-09-06T06:12:27.790Z,18.1
2018-09-06T06:17:27.675Z,18.4
2018-09-06T06:22:27.453Z,18.7
2018-09-06T06:27:29.229Z,19.0
2018-09-06T06:32:28.321Z,19.3
2018-09-06T06:37:27.866Z,19.5
2018-09-06T06:42:27.666Z,19.9
2018-09-06T06:47:28.245Z,20.1
2018-09-06T06:52:27.793Z,20.3
2018-09-06T06:57:27.979Z,20.7
2018-09-06T07:02:27.816Z,21.0
2018-09-06T07:07:28.840Z,21.3
2018-09-06T07:12:27.321Z,21.6
2018-09-06T07:17:28.353Z,21.8
2018-09-06T07:22:27.471Z,22.1
2018-09-06T07:27:28.629Z,22.3
2018-09-06T07:32:27.625Z,22.5
2018-09-06T07:37:28.040Z,22.4
2018-09-06T07:42:27.144Z,22.3
2018-09-06T07:47:27.067Z,22.8
2018-09-06T07:52:28.404Z,23.2
2018-09-06T07:57:29.313Z,23.5
2018-09-06T08:02:27.475Z,24.1
2018-09-06T08:07:29.226Z,24.1
2018-09-06T08:12:27.232Z,24.5
2018-09-06T08:17:28.153Z,25.0
2018-09-06T08:22:27.479Z,25.0
2018-09-06T08:27:27.648Z,25.3
2018-09-06T08:32:27.574Z,25.7
2018-09-06T08:37:27.730Z,26.0
2018-09-06T08:42:27.602Z,26.3
2018-09-06T08:47:28.133Z,26.7
2018-09-06T08:52:26.986Z,26.9
2018-09-06T08:57:27.949Z,27.2
2018-09-06T09:02:28.047Z,27.6
2018-09-06T09:07:28.408Z,28.1
2018-09-06T09:12:27.764Z,28.7
2018-09-06T09:17:28.577Z,29.2
2018-09-06T09:22:28.124Z,29.8
2018-09-06T09:27:27.860Z,30.4
2018-09-06T09:32:27.490Z,30.9
2018-09-06T09:37:28.104Z,31.0
2018-09-06T09:42:28.530Z,31.1
2018-09-06T09:52:27.526Z,31.3
2018-09-06T09:57:28.189Z,31.1
2018-09-06T10:02:27.200Z,31.1
2018-09-06T10:07:27.676Z,31.1
2018-09-06T10:12:27.515Z,31.2
2018-09-06T10:17:28.200Z,31.7
2018-09-06T10:22:28.431Z,32.5
2018-09-06T10:27:27.812Z,32.2
2018-09-06T10:32:28.452Z,32.2
2018-09-06T10:37:27.894Z,31.6
2018-09-06T10:42:27.996Z,30.4
2018-09-06T10:47:27.533Z,29.4
2018-09-06T10:52:27.824Z,28.8
2018-09-06T10:57:28.084Z,28.5
2018-09-06T11:02:28.244Z,27.8
2018-09-06T11:07:28.373Z,27.7
2018-09-06T11:12:27.952Z,27.4
2018-09-06T11:17:27.788Z,27.1
2018-09-06T11:22:27.982Z,27.1
2018-09-06T11:27:27.884Z,27.1
2018-09-06T11:32:28.732Z,27.2
2018-09-06T11:37:27.983Z,27.3
2018-09-06T11:42:29.219Z,27.6
2018-09-06T11:47:29.291Z,27.7
2018-09-06T11:52:28.713Z,27.8
2018-09-06T11:57:27.663Z,27.9
2018-09-06T12:02:27.545Z,28.2
2018-09-06T12:07:27.860Z,28.2
2018-09-06T12:12:28.371Z,28.5
2018-09-06T12:17:28.989Z,29.7
2018-09-06T12:22:28.402Z,29.7
2018-09-06T12:27:27.920Z,30.7
2018-09-06T12:32:28.769Z,31.1
2018-09-06T12:37:28.709Z,31.5
2018-09-06T12:42:27.727Z,31.5
2018-09-06T12:47:28.596Z,31.7
2018-09-06T12:52:27.100Z,31.8
2018-09-06T12:57:28.290Z,32.1
2018-09-06T13:02:28.591Z,32.0
2018-09-06T13:07:28.717Z,32.2
2018-09-06T13:12:28.082Z,32.3
2018-09-06T13:17:28.690Z,32.5
2018-09-06T13:22:27.184Z,32.8
2018-09-06T13:27:28.875Z,33.3
2018-09-06T13:32:27.466Z,33.4
2018-09-06T13:37:27.818Z,32.5
2018-09-06T13:42:27.904Z,31.6
2018-09-06T13:47:28.115Z,30.9
2018-09-06T13:52:27.401Z,30.5
2018-09-06T13:57:27.788Z,29.9
2018-09-06T14:02:28.310Z,29.6
2018-09-06T14:07:28.364Z,29.3
2018-09-06T14:12:28.393Z,29.0
2018-09-06T14:17:28.618Z,28.5
2018-09-06T14:22:28.264Z,27.7
2018-09-06T14:27:28.132Z,26.5
2018-09-06T14:32:28.249Z,25.2
2018-09-06T14:37:28.701Z,24.5
2018-09-06T14:42:27.409Z,24.1
2018-09-06T14:47:27.821Z,24.0
2018-09-06T14:52:27.626Z,22.5
2018-09-06T14:57:28.934Z,22.5
2018-09-06T15:02:28.441Z,22.0
2018-09-06T15:07:27.659Z,21.7
2018-09-06T15:12:28.499Z,21.7
2018-09-06T15:17:28.099Z,21.7
2018-09-06T15:22:27.467Z,21.6
2018-09-06T15:27:27.769Z,21.3
2018-09-06T15:32:28.027Z,21.0
2018-09-06T15:37:27.847Z,20.9
2018-09-06T15:42:28.026Z,20.8
2018-09-06T15:47:28.081Z,20.6
2018-09-06T15:52:27.830Z,20.5
2018-09-06T15:57:27.872Z,20.5
2018-09-06T16:02:29.111Z,20.7
2018-09-06T16:07:28.184Z,20.7
2018-09-06T16:12:27.922Z,20.6
2018-09-06T16:17:28.554Z,20.5
2018-09-06T16:22:27.134Z,20.5
2018-09-06T16:27:28.375Z,20.3
2018-09-06T16:32:28.226Z,20.1
2018-09-06T16:37:27.669Z,20.0
2018-09-06T16:42:27.595Z,20.1
2018-09-06T16:47:28.170Z,20.1
2018-09-06T16:52:27.294Z,20.2
2018-09-06T16:57:28.768Z,20.4
2018-09-06T17:02:27.866Z,20.5
2018-09-06T17:07:28.700Z,20.5
2018-09-06T17:12:27.764Z,20.5
2018-09-06T17:17:28.437Z,20.5
2018-09-06T17:22:28.520Z,20.4
2018-09-06T17:27:27.773Z,20.4
2018-09-06T17:32:30.036Z,20.4
2018-09-06T17:37:28.651Z,20.3
2018-09-06T17:42:27.722Z,20.3
2018-09-06T17:47:28.312Z,20.2
2018-09-06T17:52:27.736Z,20.1
2018-09-06T17:57:27.141Z,19.9
2018-09-06T18:02:27.370Z,19.6
2018-09-06T18:07:27.753Z,19.5
2018-09-06T18:12:27.633Z,19.6
2018-09-06T18:17:27.997Z,19.6
2018-09-06T18:22:27.401Z,19.6
2018-09-06T18:27:27.981Z,19.5
2018-09-06T18:32:27.622Z,19.4
2018-09-06T18:37:27.134Z,19.3
2018-09-06T18:42:27.379Z,19.3
2018-09-06T18:47:26.743Z,19.3
2018-09-06T18:52:27.782Z,19.4
2018-09-06T18:57:27.647Z,19.3
2018-09-06T19:02:27.689Z,19.3
2018-09-06T19:07:28.170Z,19.5
2018-09-06T19:12:28.451Z,19.5
2018-09-06T19:17:27.145Z,19.5
2018-09-06T19:22:26.530Z,19.6
2018-09-06T19:27:27.459Z,19.6
2018-09-06T19:32:28.554Z,19.6
2018-09-06T19:37:27.700Z,19.7
2018-09-06T19:42:27.125Z,19.6
2018-09-06T19:47:26.868Z,19.7
2018-09-06T19:52:27.743Z,19.7
2018-09-06T19:57:27.281Z,19.7
2018-09-06T20:02:27.115Z,19.6
2018-09-06T20:07:28.101Z,19.5
2018-09-06T20:12:28.153Z,19.5
2018-09-06T20:17:27.764Z,19.5
2018-09-06T20:22:27.397Z,19.4
2018-09-06T20:27:27.844Z,19.4
2018-09-06T20:32:27.569Z,19.4
2018-09-06T20:37:28.776Z,19.4
2018-09-06T20:42:28.297Z,19.2
2018-09-06T20:47:27.265Z,19.1
2018-09-06T20:52:28.838Z,19.1
2018-09-06T20:57:27.731Z,19.1
2018-09-06T21:02:27.210Z,19.1
2018-09-06T21:07:27.824Z,19.1
2018-09-06T21:12:27.880Z,19.1
2018-09-06T21:17:28.039Z,19.1
2018-09-06T21:22:27.406Z,18.7
2018-09-06T21:27:27.339Z,18.7
2018-09-06T21:32:27.577Z,18.5
2018-09-06T21:37:27.576Z,18.3
2018-09-06T21:42:28.033Z,18.4
2018-09-06T21:47:27.308Z,18.4
2018-09-06T21:52:27.858Z,18.4
2018-09-06T21:57:27.397Z,18.4
2018-09-06T22:02:27.796Z,18.3
2018-09-06T22:07:26.989Z,18.2
2018-09-06T22:12:27.780Z,18.2
2018-09-06T22:22:47.345Z,18.1
2018-09-06T22:27:46.686Z,18.1
2018-09-06T22:32:46.231Z,18.3
2018-09-06T22:37:46.059Z,18.2
2018-09-06T22:42:46.712Z,18.3
2018-09-06T22:47:46.464Z,18.3
2018-09-06T22:52:46.415Z,18.4
2018-09-06T22:57:46.383Z,18.3
2018-09-06T23:02:46.024Z,18.3
2018-09-06T23:07:47.692Z,18.3
2018-09-06T23:12:27.931Z,18.3
2018-09-06T23:17:27.770Z,18.4
2018-09-06T23:22:26.818Z,18.4
2018-09-06T23:27:28.277Z,18.4
2018-09-06T23:32:27.846Z,18.3
2018-09-06T23:37:27.417Z,18.3
2018-09-06T23:42:27.432Z,18.3
2018-09-06T23:47:27.449Z,18.2
2018-09-06T23:52:27.692Z,18.2
2018-09-06T23:57:27.166Z,18.1
